createdAt,value
2023-10-11T00:01:43.867Z,14.43
2023-10-11T00:04:24.902Z,13.60
2023-10-11T00:06:51.928Z,15.13
2023-10-11T00:09:18.854Z,17.85
2023-10-11T00:11:46.337Z,14.57
2023-10-11T00:14:14.834Z,15.52
2023-10-11T00:16:41.325Z,13.52
2023-10-11T00:21:43.698Z,14.50
2023-10-11T00:24:10.533Z,12.75
2023-10-11T00:26:41.316Z,13.82
2023-10-11T00:29:10.480Z,15.65
2023-10-11T00:31:37.046Z,12.75
2023-10-11T00:36:32.162Z,16.52
2023-10-11T00:38:58.613Z,20.48
2023-10-11T00:43:58.491Z,15.85
2023-10-11T00:46:50.927Z,15.85
2023-10-11T00:49:17.789Z,14.93
2023-10-11T00:51:48.033Z,13.30
2023-10-11T00:54:17.112Z,12.27
2023-10-11T00:56:45.097Z,15.35
2023-10-11T00:59:16.121Z,17.27
2023-10-11T01:01:43.818Z,17.35
2023-10-11T01:04:11.865Z,14.00
2023-10-11T01:06:39.006Z,19.55
2023-10-11T01:09:10.726Z,15.85
2023-10-11T01:11:37.385Z,19.73
2023-10-11T01:14:03.857Z,15.27
2023-10-11T01:18:56.742Z,16.75
2023-10-11T01:23:49.871Z,13.90
2023-10-11T01:26:16.471Z,14.40
2023-10-11T01:31:10.161Z,20.75
2023-10-11T01:33:43.321Z,18.00
2023-10-11T01:36:13.729Z,19.95
2023-10-11T01:38:50.640Z,17.27
2023-10-11T01:41:19.710Z,17.38
2023-10-11T01:43:51.310Z,16.40
2023-10-11T01:46:28.611Z,16.83
2023-10-11T01:48:56.294Z,17.48
2023-10-11T01:51:28.995Z,17.50
2023-10-11T01:53:56.392Z,18.98
2023-10-11T01:56:27.439Z,17.00
2023-10-11T01:58:54.455Z,16.60
2023-10-11T02:01:25.464Z,16.95
2023-10-11T02:03:55.038Z,20.20
2023-10-11T02:06:21.761Z,20.13
2023-10-11T02:08:48.244Z,16.48
2023-10-11T02:13:44.316Z,16.38
2023-10-11T02:16:13.102Z,20.35
2023-10-11T02:18:40.548Z,18.60
2023-10-11T02:21:08.035Z,15.20
2023-10-11T02:23:43.647Z,20.55
2023-10-11T02:26:17.854Z,16.40
2023-10-11T02:28:44.940Z,18.83
2023-10-11T02:31:14.785Z,15.77
2023-10-11T02:33:41.553Z,18.60
2023-10-11T02:36:18.386Z,18.10
2023-10-11T02:38:48.872Z,16.58
2023-10-11T02:41:22.087Z,18.25
2023-10-11T02:43:51.463Z,16.85
2023-10-11T02:46:18.360Z,16.95
2023-10-11T02:48:49.168Z,19.17
2023-10-11T02:51:18.785Z,19.95
2023-10-11T02:53:45.804Z,16.80
2023-10-11T02:58:42.136Z,18.02
2023-10-11T03:01:23.917Z,16.52
2023-10-11T03:03:53.920Z,14.45
2023-10-11T03:06:23.462Z,20.48
2023-10-11T03:08:52.676Z,18.67
2023-10-11T03:11:19.369Z,23.02
2023-10-11T03:16:18.170Z,16.65
2023-10-11T03:18:47.862Z,17.13
2023-10-11T03:21:18.902Z,17.13
2023-10-11T03:23:46.864Z,20.45
2023-10-11T03:26:32.019Z,21.95
2023-10-11T03:28:59.779Z,20.27
2023-10-11T03:31:29.325Z,19.50
2023-10-11T03:34:00.374Z,20.20
2023-10-11T03:36:31.988Z,17.10
2023-10-11T03:38:59.207Z,20.63
2023-10-11T03:41:31.622Z,20.00
2023-10-11T03:44:18.149Z,18.75
2023-10-11T03:47:05.589Z,24.35
2023-10-11T03:49:32.082Z,20.55
2023-10-11T03:54:25.089Z,18.27
2023-10-11T03:56:55.449Z,19.83
2023-10-11T03:59:22.411Z,16.67
2023-10-11T04:01:51.000Z,17.88
2023-10-11T04:04:18.129Z,16.77
2023-10-11T04:06:51.835Z,18.73
2023-10-11T04:09:33.175Z,17.50
2023-10-11T04:12:04.700Z,19.30
2023-10-11T04:14:40.643Z,22.30
2023-10-11T04:17:07.901Z,20.08
2023-10-11T04:19:36.167Z,18.17
2023-10-11T04:22:13.340Z,21.83
2023-10-11T04:24:41.711Z,22.25
2023-10-11T04:27:23.474Z,24.35
2023-10-11T04:29:53.104Z,20.25
2023-10-11T04:32:39.946Z,24.10
2023-10-11T04:35:25.486Z,21.60
2023-10-11T04:38:02.507Z,22.13
2023-10-11T04:40:35.274Z,20.88
2023-10-11T04:43:06.193Z,25.33
2023-10-11T04:45:55.882Z,22.15
2023-10-11T04:48:38.882Z,23.25
2023-10-11T04:51:08.549Z,23.58
2023-10-11T04:53:36.644Z,25.45
2023-10-11T04:56:32.075Z,20.90
2023-10-11T04:59:07.184Z,19.00
2023-10-11T05:01:54.422Z,22.03
2023-10-11T05:04:31.831Z,20.02
2023-10-11T05:06:58.720Z,21.73
2023-10-11T05:09:39.289Z,22.13
2023-10-11T05:12:10.475Z,26.02
2023-10-11T05:14:40.919Z,23.15
2023-10-11T05:17:17.152Z,23.75
2023-10-11T05:22:18.700Z,23.38
2023-10-11T05:24:55.568Z,20.95
2023-10-11T05:27:34.366Z,22.60
2023-10-11T05:30:10.696Z,21.98
2023-10-11T05:32:51.330Z,22.52
2023-10-11T05:35:22.481Z,25.58
2023-10-11T05:38:09.646Z,26.58
2023-10-11T05:40:54.943Z,21.92
2023-10-11T05:43:40.052Z,23.13
2023-10-11T05:46:25.536Z,21.17
2023-10-11T05:49:10.913Z,24.77
2023-10-11T05:51:40.957Z,23.27
2023-10-11T05:54:11.138Z,24.25
2023-10-11T05:56:41.157Z,23.40
2023-10-11T05:59:11.423Z,22.60
2023-10-11T06:01:38.309Z,24.13
2023-10-11T06:04:09.289Z,26.30
2023-10-11T06:06:43.766Z,24.48
2023-10-11T06:09:18.259Z,23.30
2023-10-11T06:11:51.773Z,25.40
2023-10-11T06:14:18.809Z,25.55
2023-10-11T06:16:50.882Z,26.88
2023-10-11T06:19:18.067Z,21.73
2023-10-11T06:21:57.493Z,27.45
2023-10-11T06:24:24.994Z,23.92
2023-10-11T06:26:55.031Z,25.65
2023-10-11T06:29:25.149Z,26.13
2023-10-11T06:32:05.289Z,24.17
2023-10-11T06:34:40.294Z,23.50
2023-10-11T06:39:41.925Z,25.92
2023-10-11T06:42:15.889Z,26.35
2023-10-11T06:44:48.435Z,24.88
2023-10-11T06:47:19.760Z,27.48
2023-10-11T06:49:50.472Z,22.25
2023-10-11T06:52:26.157Z,24.58
2023-10-11T06:55:14.371Z,27.58
2023-10-11T06:57:41.294Z,26.80
2023-10-11T07:00:13.731Z,23.40
2023-10-11T07:02:48.446Z,23.92
2023-10-11T07:05:19.017Z,26.77
2023-10-11T07:07:53.115Z,28.88
2023-10-11T07:10:29.841Z,24.80
2023-10-11T07:13:06.465Z,26.33
2023-10-11T07:15:39.925Z,25.17
2023-10-11T07:18:09.686Z,27.30
2023-10-11T07:20:49.100Z,26.13
2023-10-11T07:23:22.192Z,27.75
2023-10-11T07:25:49.617Z,26.48
2023-10-11T07:28:36.295Z,32.08
2023-10-11T07:31:05.959Z,22.85
2023-10-11T07:33:32.890Z,27.52
2023-10-11T07:36:00.467Z,27.58
2023-10-11T07:38:34.597Z,27.88
2023-10-11T07:41:18.427Z,26.50
2023-10-11T07:43:48.087Z,29.75
2023-10-11T07:46:15.062Z,27.50
2023-10-11T07:48:42.556Z,27.00
2023-10-11T07:51:11.020Z,27.83
2023-10-11T07:53:44.557Z,26.33
2023-10-11T07:56:11.132Z,26.92
2023-10-11T07:58:46.230Z,31.10
2023-10-11T08:01:39.551Z,26.88
2023-10-11T08:04:09.937Z,28.00
2023-10-11T08:06:40.838Z,30.20
2023-10-11T08:09:07.729Z,25.65
2023-10-11T08:11:54.076Z,32.25
2023-10-11T08:14:23.768Z,26.90
2023-10-11T08:16:50.581Z,27.33
2023-10-11T08:19:17.396Z,28.20
2023-10-11T08:21:55.750Z,29.48
2023-10-11T08:24:27.382Z,29.15
2023-10-11T08:26:54.299Z,32.95
2023-10-11T08:29:31.252Z,29.60
2023-10-11T08:31:58.818Z,25.42
2023-10-11T08:34:28.999Z,30.05
2023-10-11T08:36:57.232Z,33.22
2023-10-11T08:39:36.355Z,35.08
2023-10-11T08:42:07.411Z,36.30
2023-10-11T08:44:33.960Z,31.88
2023-10-11T08:49:26.762Z,36.92
2023-10-11T08:54:26.771Z,36.13
2023-10-11T08:56:58.653Z,34.47
2023-10-11T08:59:32.069Z,35.17
2023-10-11T09:02:08.503Z,37.85
2023-10-11T09:04:36.688Z,34.47
2023-10-11T09:07:03.458Z,38.58
2023-10-11T09:09:54.964Z,43.42
2023-10-11T09:12:28.828Z,43.63
2023-10-11T09:14:59.632Z,41.90
2023-10-11T09:17:28.228Z,38.67
2023-10-11T09:20:00.902Z,41.70
2023-10-11T09:22:29.234Z,43.45
2023-10-11T09:25:22.645Z,37.38
2023-10-11T09:27:52.526Z,42.15
2023-10-11T09:30:25.149Z,43.03
2023-10-11T09:33:00.368Z,40.88
2023-10-11T09:35:28.462Z,44.57
2023-10-11T09:37:58.635Z,44.78
2023-10-11T09:40:35.220Z,52.25
2023-10-11T09:43:01.942Z,42.47
2023-10-11T09:45:30.256Z,42.42
2023-10-11T09:47:58.071Z,38.63
2023-10-11T09:50:25.605Z,42.78
2023-10-11T09:52:53.378Z,40.65
2023-10-11T09:55:34.074Z,43.97
2023-10-11T09:58:05.679Z,42.58
2023-10-11T10:00:38.858Z,40.08
2023-10-11T10:03:09.097Z,40.20
2023-10-11T10:05:54.508Z,40.55
2023-10-11T10:08:20.874Z,43.47
2023-10-11T10:10:54.351Z,38.72
2023-10-11T10:13:25.626Z,39.53
2023-10-11T10:15:54.477Z,47.80
2023-10-11T10:18:21.830Z,41.78
2023-10-11T10:20:57.842Z,36.58
2023-10-11T10:23:28.894Z,41.55
2023-10-11T10:26:04.435Z,41.30
2023-10-11T10:28:37.116Z,34.35
2023-10-11T10:31:13.558Z,37.25
2023-10-11T10:33:40.874Z,33.85
2023-10-11T10:36:30.841Z,31.80
2023-10-11T10:39:09.958Z,35.63
2023-10-11T10:41:43.154Z,36.00
2023-10-11T10:44:11.018Z,29.58
2023-10-11T10:46:38.204Z,31.15
2023-10-11T10:49:04.899Z,35.20
2023-10-11T10:51:38.639Z,28.80
2023-10-11T10:54:14.443Z,36.22
2023-10-11T10:56:44.012Z,34.95
2023-10-11T10:59:26.180Z,25.65
2023-10-11T11:01:54.272Z,24.42
2023-10-11T11:04:28.432Z,31.73
2023-10-11T11:06:57.041Z,30.88
2023-10-11T11:09:30.306Z,26.45
2023-10-11T11:12:10.281Z,25.98
2023-10-11T11:14:38.046Z,23.80
2023-10-11T11:17:10.791Z,24.50
2023-10-11T11:19:37.542Z,25.35
2023-10-11T11:22:14.156Z,20.50
2023-10-11T11:24:43.029Z,21.60
2023-10-11T11:27:16.241Z,23.48
2023-10-11T11:29:44.020Z,20.48
2023-10-11T11:32:17.585Z,22.20
2023-10-11T11:35:03.360Z,20.92
2023-10-11T11:37:34.344Z,15.73
2023-10-11T11:40:20.544Z,19.52
2023-10-11T11:42:49.804Z,15.50
2023-10-11T11:45:16.896Z,16.48
2023-10-11T11:47:58.762Z,15.07
2023-10-11T11:50:36.741Z,17.50
2023-10-11T11:53:04.297Z,15.35
2023-10-11T11:55:33.138Z,17.55
2023-10-11T11:57:59.926Z,17.10
2023-10-11T12:00:28.656Z,17.33
2023-10-11T12:02:57.140Z,14.20
2023-10-11T12:05:24.347Z,15.85
2023-10-11T12:07:53.078Z,17.30
2023-10-11T12:10:33.968Z,17.55
2023-10-11T12:13:11.182Z,19.67
2023-10-11T12:15:37.741Z,20.95
2023-10-11T12:18:06.607Z,19.88
2023-10-11T12:20:37.524Z,17.88
2023-10-11T12:23:13.960Z,17.52
2023-10-11T12:25:40.590Z,16.73
2023-10-11T12:28:07.717Z,15.32
2023-10-11T12:30:37.913Z,17.73
2023-10-11T12:33:08.028Z,18.40
2023-10-11T12:35:36.731Z,19.45
2023-10-11T12:38:03.656Z,16.73
2023-10-11T12:40:30.132Z,20.52
2023-10-11T12:43:08.137Z,17.98
2023-10-11T12:45:36.146Z,18.80
2023-10-11T12:48:11.338Z,20.00
2023-10-11T12:50:38.547Z,18.52
2023-10-11T12:53:11.348Z,23.05
2023-10-11T12:55:43.366Z,25.40
2023-10-11T12:58:16.281Z,23.52
2023-10-11T13:00:59.143Z,23.48
2023-10-11T13:04:11.468Z,19.42
2023-10-11T13:06:50.968Z,15.68
2023-10-11T13:12:22.664Z,19.15
2023-10-11T13:15:20.606Z,17.40
2023-10-11T13:17:54.352Z,24.42
2023-10-11T13:20:37.244Z,18.55
2023-10-11T13:23:27.490Z,26.77
2023-10-11T13:29:32.171Z,24.40
2023-10-11T13:32:05.353Z,22.02
2023-10-11T13:34:34.823Z,24.80
2023-10-11T13:37:02.065Z,24.50
2023-10-11T13:39:28.964Z,22.10
2023-10-11T13:42:05.423Z,25.15
2023-10-11T13:44:38.258Z,26.52
2023-10-11T13:47:05.449Z,23.50
2023-10-11T13:49:34.605Z,23.95
2023-10-11T13:52:05.157Z,24.77
2023-10-11T13:54:43.373Z,23.05
2023-10-11T13:57:19.864Z,17.98
2023-10-11T13:59:48.067Z,24.65
2023-10-11T14:02:34.676Z,24.90
2023-10-11T14:05:05.789Z,23.58
2023-10-11T14:07:37.989Z,25.83
2023-10-11T14:10:18.122Z,22.92
2023-10-11T14:12:45.123Z,24.63
2023-10-11T14:15:25.347Z,25.83
2023-10-11T14:17:52.008Z,22.67
2023-10-11T14:20:23.599Z,22.95
2023-10-11T14:22:50.809Z,23.50
2023-10-11T14:25:20.026Z,24.38
2023-10-11T14:27:49.534Z,23.48
2023-10-11T14:30:16.165Z,21.98
2023-10-11T14:32:43.542Z,24.67
2023-10-11T14:35:10.309Z,25.50
2023-10-11T14:37:37.341Z,21.95
2023-10-11T14:40:16.320Z,24.13
2023-10-11T14:42:44.390Z,23.95
2023-10-11T14:45:13.461Z,20.98
2023-10-11T14:47:40.567Z,26.40
2023-10-11T14:50:12.263Z,27.55
2023-10-11T14:52:42.948Z,20.73
2023-10-11T14:55:10.336Z,27.20
2023-10-11T14:57:36.877Z,24.45
2023-10-11T15:00:07.579Z,23.35
2023-10-11T15:02:34.722Z,28.88
2023-10-11T15:05:01.160Z,27.17
2023-10-11T15:07:27.957Z,25.90
2023-10-11T15:09:55.504Z,24.27
2023-10-11T15:12:22.000Z,25.70
2023-10-11T15:14:48.877Z,31.33
2023-10-11T15:17:15.470Z,28.90
2023-10-11T15:19:42.249Z,30.80
2023-10-11T15:22:14.058Z,32.92
2023-10-11T15:24:40.701Z,25.00
2023-10-11T15:27:07.436Z,28.58
2023-10-11T15:29:34.007Z,30.35
2023-10-11T15:32:00.437Z,31.42
2023-10-11T15:34:27.681Z,31.23
2023-10-11T15:36:54.701Z,28.98
2023-10-11T15:39:21.245Z,31.40
2023-10-11T15:41:47.659Z,28.92
2023-10-11T15:44:16.441Z,28.95
2023-10-11T15:46:43.770Z,36.70
2023-10-11T15:49:10.292Z,30.50
2023-10-11T15:51:36.756Z,36.53
2023-10-11T15:54:03.487Z,28.58
2023-10-11T15:56:33.195Z,29.10
2023-10-11T15:59:00.215Z,32.25
2023-10-11T16:01:28.647Z,28.25
2023-10-11T16:03:57.105Z,33.63
2023-10-11T16:06:36.143Z,32.83
2023-10-11T16:09:15.298Z,31.45
2023-10-11T16:11:42.188Z,28.35
2023-10-11T16:14:08.648Z,34.63
2023-10-11T16:16:40.168Z,31.58
2023-10-11T16:19:06.674Z,29.88
2023-10-11T16:21:35.305Z,27.65
2023-10-11T16:24:02.016Z,31.73
2023-10-11T16:26:30.326Z,33.17
2023-10-11T16:28:57.173Z,31.13
2023-10-11T16:31:23.793Z,30.45
2023-10-11T16:33:53.973Z,30.38
2023-10-11T16:36:21.217Z,28.60
2023-10-11T16:38:47.860Z,34.88
2023-10-11T16:41:14.388Z,35.55
2023-10-11T16:43:41.910Z,34.75
2023-10-11T16:46:27.840Z,34.05
2023-10-11T16:48:55.935Z,32.53
2023-10-11T16:54:08.934Z,30.08
2023-10-11T16:57:06.081Z,35.05
2023-10-11T16:59:46.055Z,34.30
2023-10-11T17:02:25.018Z,30.02
2023-10-11T17:05:01.354Z,34.35
2023-10-11T17:07:34.975Z,30.02
2023-10-11T17:10:12.322Z,28.23
2023-10-11T17:12:52.749Z,30.70
2023-10-11T17:18:23.501Z,28.65
2023-10-11T17:21:08.076Z,28.90
2023-10-11T17:24:06.514Z,35.40
2023-10-11T17:29:49.419Z,33.10
2023-10-11T17:32:50.259Z,35.22
2023-10-11T17:35:23.792Z,38.42
2023-10-11T17:38:13.278Z,35.05
2023-10-11T17:40:55.309Z,31.40
2023-10-11T17:43:37.573Z,29.05
2023-10-11T17:46:10.603Z,31.35
2023-10-11T17:48:38.116Z,31.23
2023-10-11T17:51:08.398Z,34.78
2023-10-11T17:53:36.933Z,28.33
2023-10-11T17:56:06.481Z,25.73
2023-10-11T17:58:34.509Z,36.17
2023-10-11T18:01:02.278Z,27.63
2023-10-11T18:03:29.261Z,26.52
2023-10-11T18:05:56.885Z,28.42
2023-10-11T18:08:24.090Z,30.05
2023-10-11T18:10:50.702Z,26.40
2023-10-11T18:13:17.439Z,28.42
2023-10-11T18:15:48.236Z,21.08
2023-10-11T18:18:15.224Z,25.23
2023-10-11T18:20:41.690Z,26.80
2023-10-11T18:23:09.749Z,26.60
2023-10-11T18:25:36.706Z,25.25
2023-10-11T18:28:06.419Z,21.95
2023-10-11T18:30:33.970Z,19.13
2023-10-11T18:33:01.438Z,17.75
2023-10-11T18:35:28.025Z,24.42
2023-10-11T18:37:54.671Z,20.25
2023-10-11T18:40:21.798Z,23.40
2023-10-11T18:42:50.952Z,27.67
2023-10-11T18:45:18.576Z,21.60
2023-10-11T18:47:45.748Z,18.55
2023-10-11T18:50:12.786Z,22.88
2023-10-11T18:52:41.193Z,18.85
2023-10-11T18:55:11.030Z,20.73
2023-10-11T18:57:38.377Z,17.52
2023-10-11T19:00:15.228Z,21.98
2023-10-11T19:02:43.166Z,20.48
2023-10-11T19:05:13.313Z,23.70
2023-10-11T19:07:40.172Z,18.40
2023-10-11T19:10:13.681Z,20.48
2023-10-11T19:12:43.363Z,21.02
2023-10-11T19:15:10.257Z,19.20
2023-10-11T19:17:37.429Z,18.48
2023-10-11T19:20:15.218Z,19.92
2023-10-11T19:22:47.186Z,18.63
2023-10-11T19:25:18.915Z,20.25
2023-10-11T19:27:46.361Z,17.20
2023-10-11T19:30:18.078Z,17.98
2023-10-11T19:32:45.192Z,18.52
2023-10-11T19:35:15.668Z,20.98
2023-10-11T19:37:44.067Z,16.48
2023-10-11T19:40:16.616Z,22.90
2023-10-11T19:42:45.272Z,18.48
2023-10-11T19:45:19.500Z,19.20
2023-10-11T19:47:51.076Z,17.73
2023-10-11T19:50:18.469Z,18.25
2023-10-11T19:52:45.836Z,21.90
2023-10-11T19:55:14.439Z,17.58
2023-10-11T19:57:41.521Z,17.85
2023-10-11T20:00:11.763Z,19.13
2023-10-11T20:02:38.499Z,21.95
2023-10-11T20:05:05.125Z,18.98
2023-10-11T20:07:32.689Z,18.50
2023-10-11T20:10:00.408Z,19.25
2023-10-11T20:12:26.896Z,17.92
2023-10-11T20:14:53.605Z,19.40
2023-10-11T20:17:20.062Z,18.13
2023-10-11T20:22:13.878Z,19.77
2023-10-11T20:24:40.500Z,17.52
2023-10-11T20:27:08.407Z,20.55
2023-10-11T20:29:35.221Z,14.52
2023-10-11T20:32:01.669Z,18.90
2023-10-11T20:34:28.125Z,18.30
2023-10-11T20:39:23.819Z,18.98
2023-10-11T20:41:50.605Z,17.45
2023-10-11T20:44:18.258Z,18.13
2023-10-11T20:46:45.192Z,18.90
2023-10-11T20:49:14.719Z,16.85
2023-10-11T20:51:42.476Z,19.83
2023-10-11T20:54:12.716Z,18.05
2023-10-11T20:56:39.809Z,18.55
2023-10-11T20:59:15.538Z,14.57
2023-10-11T21:01:42.739Z,17.30
2023-10-11T21:04:09.231Z,15.85
2023-10-11T21:09:05.277Z,16.42
2023-10-11T21:11:33.398Z,20.08
2023-10-11T21:14:01.197Z,14.30
2023-10-11T21:16:28.044Z,16.30
2023-10-11T21:18:57.083Z,20.25
2023-10-11T21:21:24.641Z,18.85
2023-10-11T21:23:52.086Z,20.08
2023-10-11T21:26:22.428Z,20.45
2023-10-11T21:28:53.550Z,17.70
2023-10-11T21:31:21.370Z,19.73
2023-10-11T21:33:48.272Z,17.65
2023-10-11T21:36:16.920Z,18.63
2023-10-11T21:38:45.694Z,16.50
2023-10-11T21:41:12.786Z,16.98
2023-10-11T21:43:41.583Z,15.93
2023-10-11T21:46:11.849Z,19.50
2023-10-11T21:48:39.863Z,15.73
2023-10-11T21:51:14.338Z,19.25
2023-10-11T21:53:41.419Z,18.05
2023-10-11T21:56:08.545Z,20.02
2023-10-11T21:58:35.030Z,15.18
2023-10-11T22:01:22.487Z,17.23
2023-10-11T22:03:50.000Z,18.80
2023-10-11T22:06:19.791Z,16.25
2023-10-11T22:08:49.577Z,19.75
2023-10-11T22:11:17.630Z,19.42
2023-10-11T22:13:45.508Z,18.83
2023-10-11T22:16:12.639Z,18.05
2023-10-11T22:18:41.545Z,14.77
2023-10-11T22:21:13.161Z,17.77
2023-10-11T22:23:40.423Z,17.75
2023-10-11T22:26:06.816Z,18.08
2023-10-11T22:31:00.413Z,16.30
2023-10-11T22:33:27.018Z,15.95
2023-10-11T22:35:53.766Z,19.45
2023-10-11T22:38:23.414Z,19.52
2023-10-11T22:40:51.485Z,20.10
2023-10-11T22:43:29.769Z,16.48
2023-10-11T22:45:58.015Z,22.00
2023-10-11T22:48:25.468Z,23.10
2023-10-11T22:50:52.859Z,26.08
2023-10-11T22:53:19.434Z,21.45
2023-10-11T22:58:19.289Z,23.48
2023-10-11T23:00:46.378Z,18.73
2023-10-11T23:05:41.746Z,19.15
2023-10-11T23:08:08.214Z,20.92
2023-10-11T23:13:10.027Z,22.25
2023-10-11T23:18:15.819Z,26.13
2023-10-11T23:20:59.016Z,23.30
2023-10-11T23:23:42.414Z,27.40
2023-10-11T23:26:09.557Z,27.83
2023-10-11T23:28:37.002Z,25.13
2023-10-11T23:31:04.296Z,22.60
2023-10-11T23:33:36.911Z,24.90
2023-10-11T23:36:07.523Z,26.02
2023-10-11T23:38:43.567Z,27.30
2023-10-11T23:41:18.759Z,29.73
2023-10-11T23:43:47.748Z,34.80
2023-10-11T23:46:16.662Z,31.05
2023-10-11T23:48:45.756Z,28.05
2023-10-11T23:51:16.442Z,29.10
2023-10-11T23:53:46.481Z,28.52
2023-10-11T23:56:19.501Z,33.45
2023-10-11T23:58:47.276Z,31.58
